map of CPO home
CPO - Airport
Location
City:  Copiapó, Atacama, Chile
Name:Desierto de Atacama Airport
ICAO:SCAT
IATA:CPO

Details
Type:Airport (Aerodrome, Airfield)
Use:Public/Civil
Latitude:27°15'42"S (-27.261666)
Longitude:70°46'45"W (-70.779166)
Elevation:670 ft (204 m)
Variation:1.60°W (WMM2015 magnetic declination)
-0.18° annual change
Runways:1
Longest:7218 × 148 ft (2200 × 45 m), paved

Time
Time Zone:UTC-4 (DST-3)
Local Time:

Weather
METAR:SCAT 201700Z 25011KT 210V280 9999 SCT030 20/11 Q1017
TAF:SCAT 201636Z 2018/2118 27010KT 9999 FEW025 TX21/2018Z TN15/2106Z
BECMG 2022/2100 23004KT BKN020
BECMG 2102/2104 OVC015
BECMG 2105/2107 33004KT
BECMG 2116/2118 27010KT CAVOK

Related Locations
Nearby:
Farthest:HJJ: 12417 mi / 19983 km
Huaihua [Zhijiang Airport], 43, CN

Find:

   beyond  
but within

Other Information
Maps:
NOTAMs:
Links:
Sources:

  
  • flag of Chile
  • flag of Atacama
  

Sectional Chart

Flight Planning
at skyvector.com

Satellite Image

Google Maps Satellite view

 

Copyright © 2004-2018 Karl L. Swartz. All rights reserved.
The Great Circle Mapper name and logo are trademarks of the Great Circle Mapper.
All other trademarks mentioned herein belong to their respective owners.
Please see credits for attibutions and further copyright information.

  Follow gcmap on Facebook Follow gcmap on Twitter Follow gcmap on Google+ GCmap on LinkedIn

hCard Microformat

Geo Microformat